sensor_id;sensor_type;location;lat;lon;timestamp;pressure;altitude;pressure_sealevel;temperature;humidity
58757;BME280;44527;47.460;19.016;2023-04-08T00:02:08;100491.56;;;5.47;100.00
58757;BME280;44527;47.460;19.016;2023-04-08T00:05:11;100482.34;;;5.61;100.00
58757;BME280;44527;47.460;19.016;2023-04-08T00:08:14;100485.44;;;5.28;100.00
58757;BME280;44527;47.460;19.016;2023-04-08T00:11:17;100486.41;;;5.25;100.00
58757;BME280;44527;47.460;19.016;2023-04-08T00:14:19;100479.94;;;5.36;100.00
58757;BME280;44527;47.460;19.016;2023-04-08T00:17:21;100486.00;;;5.14;100.00
58757;BME280;44527;47.460;19.016;2023-04-08T00:20:23;100485.00;;;5.39;100.00
58757;BME280;44527;47.460;19.016;2023-04-08T00:23:26;100491.91;;;5.40;100.00
58757;BME280;44527;47.460;19.016;2023-04-08T00:26:30;100484.94;;;5.40;100.00
58757;BME280;44527;47.460;19.016;2023-04-08T00:29:33;100487.81;;;5.55;100.00
58757;BME280;44527;47.460;19.016;2023-04-08T00:32:35;100491.56;;;5.47;100.00
58757;BME280;44527;47.460;19.016;2023-04-08T00:35:38;100492.66;;;5.21;100.00
58757;BME280;44527;47.460;19.016;2023-04-08T00:38:40;100489.22;;;5.21;100.00
58757;BME280;44527;47.460;19.016;2023-04-08T00:41:43;100493.84;;;5.35;100.00
58757;BME280;44527;47.460;19.016;2023-04-08T00:44:45;100490.72;;;5.47;100.00
58757;BME280;44527;47.460;19.016;2023-04-08T00:47:47;100493.66;;;5.39;100.00
58757;BME280;44527;47.460;19.016;2023-04-08T00:50:53;100492.88;;;5.37;100.00
58757;BME280;44527;47.460;19.016;2023-04-08T00:53:56;100494.56;;;5.38;100.00
58757;BME280;44527;47.460;19.016;2023-04-08T00:56:58;100496.66;;;5.30;100.00
58757;BME280;44527;47.460;19.016;2023-04-08T01:00:03;100495.56;;;5.36;100.00
58757;BME280;44527;47.460;19.016;2023-04-08T01:06:19;100492.00;;;5.16;100.00
58757;BME280;44527;47.460;19.016;2023-04-08T01:09:27;100492.00;;;5.16;100.00
58757;BME280;44527;47.460;19.016;2023-04-08T01:12:39;100491.97;;;5.18;100.00
58757;BME280;44527;47.460;19.016;2023-04-08T01:15:43;100491.22;;;5.35;100.00
58757;BME280;44527;47.460;19.016;2023-04-08T01:18:47;100483.44;;;5.35;100.00
58757;BME280;44527;47.460;19.016;2023-04-08T01:21:52;100487.13;;;5.29;100.00
58757;BME280;44527;47.460;19.016;2023-04-08T01:24:58;100491.78;;;5.43;100.00
58757;BME280;44527;47.460;19.016;2023-04-08T01:28:04;100489.84;;;5.26;100.00
58757;BME280;44527;47.460;19.016;2023-04-08T01:31:07;100498.75;;;5.42;100.00
58757;BME280;44527;47.460;19.016;2023-04-08T01:34:09;100490.31;;;5.56;100.00
58757;BME280;44527;47.460;19.016;2023-04-08T01:37:14;100491.50;;;5.28;100.00
58757;BME280;44527;47.460;19.016;2023-04-08T01:40:17;100487.06;;;5.10;100.00
58757;BME280;44527;47.460;19.016;2023-04-08T01:43:20;100492.84;;;5.17;100.00
58757;BME280;44527;47.460;19.016;2023-04-08T01:46:22;100500.06;;;5.10;100.00
58757;BME280;44527;47.460;19.016;2023-04-08T01:49:26;100491.59;;;5.05;100.00
58757;BME280;44527;47.460;19.016;2023-04-08T01:52:28;100492.47;;;5.26;100.00
58757;BME280;44527;47.460;19.016;2023-04-08T01:55:32;100493.69;;;5.17;100.00
58757;BME280;44527;47.460;19.016;2023-04-08T01:58:40;100488.59;;;5.14;100.00
58757;BME280;44527;47.460;19.016;2023-04-08T02:01:43;100486.47;;;5.03;100.00
58757;BME280;44527;47.460;19.016;2023-04-08T02:04:46;100482.78;;;5.09;100.00
58757;BME280;44527;47.460;19.016;2023-04-08T02:07:49;100488.59;;;5.14;100.00
58757;BME280;44527;47.460;19.016;2023-04-08T02:10:54;100487.06;;;5.10;100.00
58757;BME280;44527;47.460;19.016;2023-04-08T02:13:56;100488.94;;;5.06;100.00
58757;BME280;44527;47.460;19.016;2023-04-08T02:17:10;100483.53;;;5.11;100.00
58757;BME280;44527;47.460;19.016;2023-04-08T02:23:19;100479.38;;;5.07;100.00
58757;BME280;44527;47.460;19.016;2023-04-08T02:26:22;100487.97;;;5.09;100.00
58757;BME280;44527;47.460;19.016;2023-04-08T02:29:27;100485.16;;;5.14;100.00
58757;BME280;44527;47.460;19.016;2023-04-08T02:32:34;100492.22;;;5.12;100.00
58757;BME280;44527;47.460;19.016;2023-04-08T02:35:37;100487.06;;;5.10;100.00
58757;BME280;44527;47.460;19.016;2023-04-08T02:38:41;100487.75;;;5.14;100.00
58757;BME280;44527;47.460;19.016;2023-04-08T02:41:50;100482.50;;;5.15;100.00
58757;BME280;44527;47.460;19.016;2023-04-08T02:44:55;100477.78;;;5.25;100.00
58757;BME280;44527;47.460;19.016;2023-04-08T02:47:58;100479.81;;;4.96;100.00
58757;BME280;44527;47.460;19.016;2023-04-08T02:51:01;100476.66;;;5.10;100.00
58757;BME280;44527;47.460;19.016;2023-04-08T02:54:05;100485.03;;;4.96;100.00
58757;BME280;44527;47.460;19.016;2023-04-08T02:57:07;100476.91;;;5.04;100.00
58757;BME280;44527;47.460;19.016;2023-04-08T03:00:09;100481.84;;;5.10;100.00
58757;BME280;44527;47.460;19.016;2023-04-08T03:03:11;100474.13;;;5.09;100.00
58757;BME280;44527;47.460;19.016;2023-04-08T03:06:14;100486.41;;;5.25;100.00
58757;BME280;44527;47.460;19.016;2023-04-08T03:09:16;100491.75;;;5.22;100.00
58757;BME280;44527;47.460;19.016;2023-04-08T03:12:19;100489.16;;;5.22;100.00
58757;BME280;44527;47.460;19.016;2023-04-08T03:15:21;100489.97;;;5.02;100.00
58757;BME280;44527;47.460;19.016;2023-04-08T03:18:24;100487.63;;;5.17;100.00
58757;BME280;44527;47.460;19.016;2023-04-08T03:21:26;100488.94;;;5.06;100.00
58757;BME280;44527;47.460;19.016;2023-04-08T03:24:29;100492.62;;;5.01;100.00
58757;BME280;44527;47.460;19.016;2023-04-08T03:27:31;100491.09;;;5.17;100.00
58757;BME280;44527;47.460;19.016;2023-04-08T03:30:33;100485.63;;;5.03;100.00
58757;BME280;44527;47.460;19.016;2023-04-08T03:33:36;100494.25;;;5.03;100.00
58757;BME280;44527;47.460;19.016;2023-04-08T03:36:38;100486.94;;;5.13;100.00
58757;BME280;44527;47.460;19.016;2023-04-08T03:39:40;100492.91;;;5.15;100.00
58757;BME280;44527;47.460;19.016;2023-04-08T03:42:43;100500.78;;;5.14;100.00
58757;BME280;44527;47.460;19.016;2023-04-08T03:45:45;100504.34;;;5.11;100.00
58757;BME280;44527;47.460;19.016;2023-04-08T03:48:48;100508.69;;;5.11;100.00
58757;BME280;44527;47.460;19.016;2023-04-08T03:51:53;100506.31;;;5.06;100.00
58757;BME280;44527;47.460;19.016;2023-04-08T03:54:55;100507.16;;;5.06;100.00
58757;BME280;44527;47.460;19.016;2023-04-08T03:57:59;100511.00;;;5.18;100.00
58757;BME280;44527;47.460;19.016;2023-04-08T04:01:01;100527.72;;;5.13;100.00
58757;BME280;44527;47.460;19.016;2023-04-08T04:04:03;100511.63;;;5.03;100.00
58757;BME280;44527;47.460;19.016;2023-04-08T04:07:06;100515.00;;;5.05;100.00
58757;BME280;44527;47.460;19.016;2023-04-08T04:10:09;100517.09;;;4.97;100.00
58757;BME280;44527;47.460;19.016;2023-04-08T04:13:12;100522.66;;;4.88;100.00
58757;BME280;44527;47.460;19.016;2023-04-08T04:16:15;100530.62;;;4.83;100.00
58757;BME280;44527;47.460;19.016;2023-04-08T04:19:18;100525.28;;;4.86;100.00
58757;BME280;44527;47.460;19.016;2023-04-08T04:22:20;100535.06;;;4.81;100.00
58757;BME280;44527;47.460;19.016;2023-04-08T04:25:23;100539.56;;;4.76;100.00
58757;BME280;44527;47.460;19.016;2023-04-08T04:28:25;100536.41;;;4.68;100.00
58757;BME280;44527;47.460;19.016;2023-04-08T04:31:27;100536.13;;;4.75;100.00
58757;BME280;44527;47.460;19.016;2023-04-08T04:34:33;100533.28;;;4.81;100.00
58757;BME280;44527;47.460;19.016;2023-04-08T04:37:35;100531.47;;;4.83;100.00
58757;BME280;44527;47.460;19.016;2023-04-08T04:40:38;100535.75;;;5.06;100.00
58757;BME280;44527;47.460;19.016;2023-04-08T04:43:40;100543.09;;;4.97;100.00
58757;BME280;44527;47.460;19.016;2023-04-08T04:46:43;100543.56;;;4.84;100.00
58757;BME280;44527;47.460;19.016;2023-04-08T04:49:45;100540.06;;;5.07;100.00
58757;BME280;44527;47.460;19.016;2023-04-08T04:52:48;100542.22;;;5.18;100.00
58757;BME280;44527;47.460;19.016;2023-04-08T04:55:50;100546.34;;;5.24;100.00
58757;BME280;44527;47.460;19.016;2023-04-08T04:58:53;100539.63;;;5.18;100.00
58757;BME280;44527;47.460;19.016;2023-04-08T05:01:55;100548.03;;;5.25;100.00
58757;BME280;44527;47.460;19.016;2023-04-08T05:05:01;100544.25;;;5.32;100.00
58757;BME280;44527;47.460;19.016;2023-04-08T05:08:03;100551.22;;;5.32;100.00
58757;BME280;44527;47.460;19.016;2023-04-08T05:11:08;100550.81;;;5.20;100.00
58757;BME280;44527;47.460;19.016;2023-04-08T05:14:10;100546.84;;;5.12;100.00
58757;BME280;44527;47.460;19.016;2023-04-08T05:17:12;100549.84;;;5.01;100.00
58757;BME280;44527;47.460;19.016;2023-04-08T05:20:15;100557.72;;;5.21;100.00
58757;BME280;44527;47.460;19.016;2023-04-08T05:23:18;100549.06;;;5.21;100.00
58757;BME280;44527;47.460;19.016;2023-04-08T05:26:21;100566.97;;;5.06;100.00
58757;BME280;44527;47.460;19.016;2023-04-08T05:29:23;100562.34;;;5.15;100.00
58757;BME280;44527;47.460;19.016;2023-04-08T05:32:26;100571.16;;;5.11;100.00
58757;BME280;44527;47.460;19.016;2023-04-08T05:35:31;100575.03;;;5.00;100.00
58757;BME280;44527;47.460;19.016;2023-04-08T05:38:33;100577.78;;;4.96;100.00
58757;BME280;44527;47.460;19.016;2023-04-08T05:41:35;100580.91;;;5.05;100.00
58757;BME280;44527;47.460;19.016;2023-04-08T05:44:38;100583.19;;;4.91;100.00
58757;BME280;44527;47.460;19.016;2023-04-08T05:47:42;100580.41;;;4.96;100.00
58757;BME280;44527;47.460;19.016;2023-04-08T05:50:45;100581.19;;;4.98;100.00
58757;BME280;44527;47.460;19.016;2023-04-08T05:53:49;100584.88;;;4.92;100.00
58757;BME280;44527;47.460;19.016;2023-04-08T05:56:52;100586.00;;;5.09;100.00
58757;BME280;44527;47.460;19.016;2023-04-08T05:59:55;100593.00;;;5.06;100.00
58757;BME280;44527;47.460;19.016;2023-04-08T06:02:57;100589.75;;;5.23;100.00
58757;BME280;44527;47.460;19.016;2023-04-08T06:06:00;100597.13;;;5.12;100.00
58757;BME280;44527;47.460;19.016;2023-04-08T06:09:02;100592.56;;;5.17;100.00
58757;BME280;44527;47.460;19.016;2023-04-08T06:12:05;100602.25;;;5.14;100.00
58757;BME280;44527;47.460;19.016;2023-04-08T06:15:07;100596.63;;;5.24;100.00
58757;BME280;44527;47.460;19.016;2023-04-08T06:18:10;100593.06;;;5.27;100.00
58757;BME280;44527;47.460;19.016;2023-04-08T06:21:12;100603.22;;;5.33;100.00
58757;BME280;44527;47.460;19.016;2023-04-08T06:24:14;100603.66;;;5.22;100.00
58757;BME280;44527;47.460;19.016;2023-04-08T06:27:18;100604.31;;;5.27;100.00
58757;BME280;44527;47.460;19.016;2023-04-08T06:30:20;100614.13;;;5.43;100.00
58757;BME280;44527;47.460;19.016;2023-04-08T06:33:23;100603.94;;;5.37;100.00
58757;BME280;44527;47.460;19.016;2023-04-08T06:36:27;100608.31;;;5.36;100.00
58757;BME280;44527;47.460;19.016;2023-04-08T06:39:29;100610.53;;;5.45;100.00
58757;BME280;44527;47.460;19.016;2023-04-08T06:42:32;100613.50;;;5.58;100.00
58757;BME280;44527;47.460;19.016;2023-04-08T06:45:35;100612.91;;;5.51;100.00
58757;BME280;44527;47.460;19.016;2023-04-08T06:48:38;100621.75;;;5.25;99.39
58757;BME280;44527;47.460;19.016;2023-04-08T06:51:41;100628.13;;;4.95;100.00
58757;BME280;44527;47.460;19.016;2023-04-08T06:54:43;100626.87;;;5.05;100.00
58757;BME280;44527;47.460;19.016;2023-04-08T06:57:45;100626.97;;;5.02;100.00
58757;BME280;44527;47.460;19.016;2023-04-08T07:00:48;100619.72;;;4.88;100.00
58757;BME280;44527;47.460;19.016;2023-04-08T07:03:50;100627.56;;;4.87;100.00
58757;BME280;44527;47.460;19.016;2023-04-08T07:06:52;100632.03;;;5.06;100.00
58757;BME280;44527;47.460;19.016;2023-04-08T07:09:55;100629.44;;;5.06;100.00
58757;BME280;44527;47.460;19.016;2023-04-08T07:12:57;100637.13;;;5.32;100.00
58757;BME280;44527;47.460;19.016;2023-04-08T07:16:00;100629.12;;;5.36;100.00
58757;BME280;44527;47.460;19.016;2023-04-08T07:19:02;100635.53;;;5.27;100.00
58757;BME280;44527;47.460;19.016;2023-04-08T07:22:05;100641.22;;;5.37;100.00
58757;BME280;44527;47.460;19.016;2023-04-08T07:25:08;100636.75;;;5.41;100.00
58757;BME280;44527;47.460;19.016;2023-04-08T07:28:10;100650.81;;;5.37;100.00
58757;BME280;44527;47.460;19.016;2023-04-08T07:31:14;100649.12;;;5.36;100.00
58757;BME280;44527;47.460;19.016;2023-04-08T07:34:17;100648.00;;;5.41;100.00
58757;BME280;44527;47.460;19.016;2023-04-08T07:37:19;100657.41;;;5.45;100.00
58757;BME280;44527;47.460;19.016;2023-04-08T07:40:22;100661.25;;;5.35;100.00
58757;BME280;44527;47.460;19.016;2023-04-08T07:43:27;100665.84;;;5.28;100.00
58757;BME280;44527;47.460;19.016;2023-04-08T07:46:29;100671.75;;;5.56;100.00
58757;BME280;44527;47.460;19.016;2023-04-08T07:49:33;100675.06;;;5.37;100.00
58757;BME280;44527;47.460;19.016;2023-04-08T07:52:35;100681.47;;;5.50;100.00
58757;BME280;44527;47.460;19.016;2023-04-08T07:55:38;100678.03;;;5.50;100.00
58757;BME280;44527;47.460;19.016;2023-04-08T07:58:41;100685.84;;;5.28;100.00
58757;BME280;44527;47.460;19.016;2023-04-08T08:01:44;100683.78;;;5.36;100.00
58757;BME280;44527;47.460;19.016;2023-04-08T08:04:48;100679.25;;;5.41;100.00
58757;BME280;44527;47.460;19.016;2023-04-08T08:07:50;100681.78;;;5.43;100.00
58757;BME280;44527;47.460;19.016;2023-04-08T08:10:52;100684.63;;;5.37;100.00
58757;BME280;44527;47.460;19.016;2023-04-08T08:13:54;100681.25;;;5.35;100.00
58757;BME280;44527;47.460;19.016;2023-04-08T08:16:57;100680.47;;;5.33;100.00
58757;BME280;44527;47.460;19.016;2023-04-08T08:20:00;100685.25;;;5.43;100.00
58757;BME280;44527;47.460;19.016;2023-04-08T08:23:03;100692.38;;;5.38;100.00
58757;BME280;44527;47.460;19.016;2023-04-08T08:26:06;100692.16;;;5.66;100.00
58757;BME280;44527;47.460;19.016;2023-04-08T08:29:08;100690.75;;;5.58;100.00
58757;BME280;44527;47.460;19.016;2023-04-08T08:32:11;100702.97;;;5.56;100.00
58757;BME280;44527;47.460;19.016;2023-04-08T08:35:13;100701.91;;;5.61;100.00
58757;BME280;44527;47.460;19.016;2023-04-08T08:38:15;100702.38;;;5.49;100.00
58757;BME280;44527;47.460;19.016;2023-04-08T08:41:20;100704.87;;;5.52;100.00
58757;BME280;44527;47.460;19.016;2023-04-08T08:44:22;100714.00;;;5.62;100.00
58757;BME280;44527;47.460;19.016;2023-04-08T08:47:25;100709.00;;;5.58;100.00
58757;BME280;44527;47.460;19.016;2023-04-08T08:50:27;100712.66;;;5.74;100.00
58757;BME280;44527;47.460;19.016;2023-04-08T08:53:29;100709.81;;;5.80;100.00
58757;BME280;44527;47.460;19.016;2023-04-08T08:56:36;100704.47;;;6.05;100.00
58757;BME280;44527;47.460;19.016;2023-04-08T08:59:38;100711.28;;;6.09;99.72
58757;BME280;44527;47.460;19.016;2023-04-08T09:02:40;100712.63;;;6.18;100.00
58757;BME280;44527;47.460;19.016;2023-04-08T09:05:47;100716.22;;;6.15;99.83
58757;BME280;44527;47.460;19.016;2023-04-08T09:08:50;100716.41;;;6.11;100.00
58757;BME280;44527;47.460;19.016;2023-04-08T09:11:54;100718.97;;;6.12;100.00
58757;BME280;44527;47.460;19.016;2023-04-08T09:15:08;100723.94;;;5.96;100.00
58757;BME280;44527;47.460;19.016;2023-04-08T09:18:20;100724.56;;;6.03;100.00
58757;BME280;44527;47.460;19.016;2023-04-08T09:21:23;100725.88;;;6.13;100.00
58757;BME280;44527;47.460;19.016;2023-04-08T09:24:29;100735.28;;;5.95;100.00
58757;BME280;44527;47.460;19.016;2023-04-08T09:27:32;100744.34;;;6.07;100.00
58757;BME280;44527;47.460;19.016;2023-04-08T09:30:35;100733.72;;;6.12;100.00
58757;BME280;44527;47.460;19.016;2023-04-08T09:33:37;100731.94;;;6.34;99.54
58757;BME280;44527;47.460;19.016;2023-04-08T09:36:39;100745.09;;;6.31;98.25
58757;BME280;44527;47.460;19.016;2023-04-08T09:39:42;100749.59;;;6.28;99.08
58757;BME280;44527;47.460;19.016;2023-04-08T09:42:45;100742.47;;;6.11;99.54
58757;BME280;44527;47.460;19.016;2023-04-08T09:45:49;100756.22;;;5.92;99.40
58757;BME280;44527;47.460;19.016;2023-04-08T09:49:04;100753.75;;;6.11;100.00
58757;BME280;44527;47.460;19.016;2023-04-08T09:52:12;100747.84;;;6.28;99.45
58757;BME280;44527;47.460;19.016;2023-04-08T09:55:18;100749.84;;;6.42;97.67
58757;BME280;44527;47.460;19.016;2023-04-08T09:58:32;100756.13;;;6.38;97.76
58757;BME280;44527;47.460;19.016;2023-04-08T10:01:39;100754.75;;;6.29;100.00
58757;BME280;44527;47.460;19.016;2023-04-08T10:04:43;100749.84;;;6.42;99.28
58757;BME280;44527;47.460;19.016;2023-04-08T10:07:47;100755.72;;;6.47;98.80
58757;BME280;44527;47.460;19.016;2023-04-08T10:10:50;100763.94;;;6.38;97.15
58757;BME280;44527;47.460;19.016;2023-04-08T10:13:52;100756.66;;;6.46;98.95
58757;BME280;44527;47.460;19.016;2023-04-08T10:23:58;100755.66;;;6.49;96.30
58757;BME280;44527;47.460;19.016;2023-04-08T10:27:01;100755.31;;;6.36;95.85
58757;BME280;44527;47.460;19.016;2023-04-08T10:30:39;100760.94;;;6.47;95.57
58757;BME280;44527;47.460;19.016;2023-04-08T10:33:33;100764.53;;;6.65;97.38
58757;BME280;44527;47.460;19.016;2023-04-08T10:36:37;100757.47;;;6.67;94.78
58757;BME280;44527;47.460;19.016;2023-04-08T10:39:39;100757.72;;;6.81;93.11
58757;BME280;44527;47.460;19.016;2023-04-08T10:42:56;100759.50;;;6.81;91.42
58757;BME280;44527;47.460;19.016;2023-04-08T10:45:59;100752.91;;;6.72;92.09
58757;BME280;44527;47.460;19.016;2023-04-08T10:49:02;100760.59;;;6.75;95.83
58757;BME280;44527;47.460;19.016;2023-04-08T10:52:08;100757.69;;;6.62;92.64
58757;BME280;44527;47.460;19.016;2023-04-08T10:55:10;100759.44;;;6.62;94.67
58757;BME280;44527;47.460;19.016;2023-04-08T10:58:13;100754.94;;;6.65;96.21
58757;BME280;44527;47.460;19.016;2023-04-08T11:01:15;100767.47;;;6.78;94.44
58757;BME280;44527;47.460;19.016;2023-04-08T11:04:17;100766.94;;;6.70;93.88
58757;BME280;44527;47.460;19.016;2023-04-08T11:07:20;100760.03;;;6.68;90.05
58757;BME280;44527;47.460;19.016;2023-04-08T11:10:23;100762.41;;;6.94;92.84
58757;BME280;44527;47.460;19.016;2023-04-08T11:13:26;100757.41;;;6.89;90.44
58757;BME280;44527;47.460;19.016;2023-04-08T11:16:29;100762.25;;;7.17;92.61
58757;BME280;44527;47.460;19.016;2023-04-08T11:19:33;100755.63;;;7.29;90.04
58757;BME280;44527;47.460;19.016;2023-04-08T11:22:37;100756.38;;;7.12;89.95
58757;BME280;44527;47.460;19.016;2023-04-08T11:25:40;100760.50;;;6.97;90.95
58757;BME280;44527;47.460;19.016;2023-04-08T11:28:43;100764.38;;;6.88;93.03
58757;BME280;44527;47.460;19.016;2023-04-08T11:31:46;100760.47;;;6.78;90.57
58757;BME280;44527;47.460;19.016;2023-04-08T11:34:51;100768.41;;;6.96;91.39
58757;BME280;44527;47.460;19.016;2023-04-08T11:37:54;100768.63;;;7.10;90.82
58757;BME280;44527;47.460;19.016;2023-04-08T11:40:57;100770.75;;;7.02;88.81
58757;BME280;44527;47.460;19.016;2023-04-08T11:44:00;100776.03;;;7.00;90.33
58757;BME280;44527;47.460;19.016;2023-04-08T11:47:02;100771.66;;;7.01;90.29
58757;BME280;44527;47.460;19.016;2023-04-08T11:50:07;100767.31;;;7.01;93.90
58757;BME280;44527;47.460;19.016;2023-04-08T11:53:20;100772.94;;;7.11;93.08
58757;BME280;44527;47.460;19.016;2023-04-08T11:56:23;100763.34;;;6.93;91.08
58757;BME280;44527;47.460;19.016;2023-04-08T11:59:26;100771.97;;;6.74;91.67
58757;BME280;44527;47.460;19.016;2023-04-08T12:02:30;100764.41;;;6.68;96.67
58757;BME280;44527;47.460;19.016;2023-04-08T12:05:33;100767.16;;;6.65;92.84
58757;BME280;44527;47.460;19.016;2023-04-08T12:08:35;100765.78;;;6.77;94.38
58757;BME280;44527;47.460;19.016;2023-04-08T12:11:39;100758.00;;;6.75;95.81
58757;BME280;44527;47.460;19.016;2023-04-08T12:14:42;100761.19;;;6.82;94.68
58757;BME280;44527;47.460;19.016;2023-04-08T12:17:44;100768.69;;;6.89;95.78
58757;BME280;44527;47.460;19.016;2023-04-08T12:20:47;100766.75;;;7.13;91.32
58757;BME280;44527;47.460;19.016;2023-04-08T12:23:50;100764.59;;;7.03;96.02
58757;BME280;44527;47.460;19.016;2023-04-08T12:26:53;100761.16;;;7.21;92.36
58757;BME280;44527;47.460;19.016;2023-04-08T12:29:56;100757.16;;;7.33;92.90
58757;BME280;44527;47.460;19.016;2023-04-08T12:32:58;100761.69;;;7.29;92.88
58757;BME280;44527;47.460;19.016;2023-04-08T12:36:02;100763.91;;;7.75;91.83
58757;BME280;44527;47.460;19.016;2023-04-08T12:39:04;100768.31;;;7.92;88.64
58757;BME280;44527;47.460;19.016;2023-04-08T12:42:06;100764.56;;;7.97;88.63
58757;BME280;44527;47.460;19.016;2023-04-08T12:45:08;100757.97;;;8.07;87.57
58757;BME280;44527;47.460;19.016;2023-04-08T12:48:11;100768.13;;;8.14;85.25
58757;BME280;44527;47.460;19.016;2023-04-08T12:51:13;100771.50;;;8.16;85.34
58757;BME280;44527;47.460;19.016;2023-04-08T12:54:16;100765.75;;;8.09;85.88
58757;BME280;44527;47.460;19.016;2023-04-08T12:57:18;100768.72;;;8.01;82.78
58757;BME280;44527;47.460;19.016;2023-04-08T13:00:21;100767.41;;;7.93;82.81
58757;BME280;44527;47.460;19.016;2023-04-08T13:03:23;100762.69;;;7.82;90.53
58757;BME280;44527;47.460;19.016;2023-04-08T13:06:28;100765.75;;;8.09;85.05
58757;BME280;44527;47.460;19.016;2023-04-08T13:09:30;100763.34;;;8.04;84.55
58757;BME280;44527;47.460;19.016;2023-04-08T13:12:33;100762.66;;;8.01;87.15
58757;BME280;44527;47.460;19.016;2023-04-08T13:15:35;100760.03;;;8.01;86.67
58757;BME280;44527;47.460;19.016;2023-04-08T13:18:38;100758.56;;;7.95;85.99
58757;BME280;44527;47.460;19.016;2023-04-08T13:21:40;100756.66;;;7.63;86.48
58757;BME280;44527;47.460;19.016;2023-04-08T13:24:43;100747.06;;;7.44;89.51
58757;BME280;44527;47.460;19.016;2023-04-08T13:27:45;100753.59;;;7.53;89.54
58757;BME280;44527;47.460;19.016;2023-04-08T13:30:48;100758.22;;;7.48;88.83
58757;BME280;44527;47.460;19.016;2023-04-08T13:33:50;100759.03;;;7.67;86.09
58757;BME280;44527;47.460;19.016;2023-04-08T13:36:54;100748.75;;;7.64;85.54
58757;BME280;44527;47.460;19.016;2023-04-08T13:39:57;100757.00;;;7.55;87.22
58757;BME280;44527;47.460;19.016;2023-04-08T13:43:00;100761.38;;;7.73;88.77
58757;BME280;44527;47.460;19.016;2023-04-08T13:46:02;100755.28;;;7.73;90.54
58757;BME280;44527;47.460;19.016;2023-04-08T13:49:05;100750.41;;;7.65;83.63
58757;BME280;44527;47.460;19.016;2023-04-08T13:52:07;100750.72;;;7.78;84.05
58757;BME280;44527;47.460;19.016;2023-04-08T13:55:10;100749.53;;;7.66;81.26
58757;BME280;44527;47.460;19.016;2023-04-08T13:58:12;100748.47;;;7.51;86.87
58757;BME280;44527;47.460;19.016;2023-04-08T14:01:25;100747.09;;;7.62;84.12
58757;BME280;44527;47.460;19.016;2023-04-08T14:04:28;100751.75;;;7.74;82.12
58757;BME280;44527;47.460;19.016;2023-04-08T14:07:31;100757.91;;;8.09;85.11
58757;BME280;44527;47.460;19.016;2023-04-08T14:10:33;100748.75;;;8.18;81.72
58757;BME280;44527;47.460;19.016;2023-04-08T14:13:37;100749.66;;;7.99;81.90
58757;BME280;44527;47.460;19.016;2023-04-08T14:16:40;100756.22;;;8.08;82.97
58757;BME280;44527;47.460;19.016;2023-04-08T14:19:43;100756.13;;;8.10;78.49
58757;BME280;44527;47.460;19.016;2023-04-08T14:22:45;100753.91;;;8.19;79.84
58757;BME280;44527;47.460;19.016;2023-04-08T14:25:47;100746.59;;;8.26;83.20
58757;BME280;44527;47.460;19.016;2023-04-08T14:28:49;100746.72;;;8.42;80.76
58757;BME280;44527;47.460;19.016;2023-04-08T14:31:52;100757.69;;;8.31;82.43
58757;BME280;44527;47.460;19.016;2023-04-08T14:34:55;100760.72;;;8.04;82.58
58757;BME280;44527;47.460;19.016;2023-04-08T14:37:57;100759.72;;;7.90;82.37
58757;BME280;44527;47.460;19.016;2023-04-08T14:40:59;100762.91;;;7.77;82.34
58757;BME280;44527;47.460;19.016;2023-04-08T14:44:02;100752.59;;;7.93;80.46
58757;BME280;44527;47.460;19.016;2023-04-08T14:47:05;100756.56;;;7.64;84.89
58757;BME280;44527;47.460;19.016;2023-04-08T14:50:08;100758.63;;;7.57;87.97
58757;BME280;44527;47.460;19.016;2023-04-08T14:53:10;100759.47;;;7.58;86.20
58757;BME280;44527;47.460;19.016;2023-04-08T14:56:13;100750.28;;;7.68;86.48
58757;BME280;44527;47.460;19.016;2023-04-08T14:59:15;100748.63;;;7.85;82.09
58757;BME280;44527;47.460;19.016;2023-04-08T15:02:17;100751.75;;;7.93;83.76
58757;BME280;44527;47.460;19.016;2023-04-08T15:05:20;100745.84;;;7.70;86.38
58757;BME280;44527;47.460;19.016;2023-04-08T15:08:22;100745.78;;;7.53;87.76
58757;BME280;44527;47.460;19.016;2023-04-08T15:11:25;100753.62;;;7.34;88.76
58757;BME280;44527;47.460;19.016;2023-04-08T15:14:27;100754.69;;;7.30;92.51
58757;BME280;44527;47.460;19.016;2023-04-08T15:17:30;100752.22;;;7.08;89.45
58757;BME280;44527;47.460;19.016;2023-04-08T15:20:33;100756.06;;;6.60;90.62
58757;BME280;44527;47.460;19.016;2023-04-08T15:23:35;100756.63;;;6.66;91.48
58757;BME280;44527;47.460;19.016;2023-04-08T15:26:42;100759.09;;;6.90;89.29
58757;BME280;44527;47.460;19.016;2023-04-08T15:29:45;100750.13;;;6.77;89.50
58757;BME280;44527;47.460;19.016;2023-04-08T15:32:48;100752.66;;;6.78;86.80
58757;BME280;44527;47.460;19.016;2023-04-08T15:35:51;100757.06;;;6.97;86.60
58757;BME280;44527;47.460;19.016;2023-04-08T15:38:54;100759.13;;;7.09;86.41
58757;BME280;44527;47.460;19.016;2023-04-08T15:41:56;100765.47;;;7.22;83.10
58757;BME280;44527;47.460;19.016;2023-04-08T15:44:59;100761.59;;;7.31;85.09
58757;BME280;44527;47.460;19.016;2023-04-08T15:48:02;100768.87;;;7.24;86.01
58757;BME280;44527;47.460;19.016;2023-04-08T15:51:07;100765.78;;;7.35;83.35
58757;BME280;44527;47.460;19.016;2023-04-08T15:54:10;100770.34;;;7.30;83.57
58757;BME280;44527;47.460;19.016;2023-04-08T15:57:15;100768.94;;;7.23;85.31
58757;BME280;44527;47.460;19.016;2023-04-08T16:00:17;100772.03;;;7.12;85.12
58757;BME280;44527;47.460;19.016;2023-04-08T16:03:20;100769.78;;;7.23;85.65